Hovedside
METAR-TAF:

METAR-TAF

Lufthavner :

Karlstad lufthavn

Karlstad, Sverige

breddegrad: 59-26-41N, lengdegrad: 013-20-15E, høyde over havet: 107 m

Gjeldene værobservasjon

Denne rapporten ble laget for 18 minutter siden, klokken 06:20 UTC
Vind 3 kt fra Nord-nordvest
Temperatur 4°C
Luftfuktighet 100%
Trykk 1005 hPa
Sikt: 2500 m
dis

METAR: ESOK 170620Z AUTO 34003KT 2500 BR OVC002/// 04/04 Q1005

Tid: 07:38 (06:38 UTC)


TAF: fraværende

Værobservasjoner og værvarsel for over 4000 flyplasser (METAR- og TAF-rapporter).

Tilgjengelige stasjoner er representert av de røde og gule prikkene på kartet.

Hold musepekeren over prikken for å se navnet på stasjonen.

Klikk så for å se værobservasjoner og -varsler.

For å forandre kartet kan du klikke på den grønne knappen med svart kryss for å zoome inn, på den grønne knappen med strek for å zoome ut, eller på de grønne pilene for å se tilstøtende kart.


METAR-TAF: